sensor_id;sensor_type;location;lat;lon;timestamp;P1;durP1;ratioP1;P2;durP2;ratioP2
27039;SDS011;14589;51.578;7.306;2023-06-24T00:01:05;3.30;;;1.95;;
27039;SDS011;14589;51.578;7.306;2023-06-24T00:03:39;5.22;;;2.78;;
27039;SDS011;14589;51.578;7.306;2023-06-24T00:06:17;5.53;;;2.45;;
27039;SDS011;14589;51.578;7.306;2023-06-24T00:08:48;3.92;;;2.40;;
27039;SDS011;14589;51.578;7.306;2023-06-24T00:11:19;4.45;;;2.20;;
27039;SDS011;14589;51.578;7.306;2023-06-24T00:13:49;3.65;;;2.17;;
27039;SDS011;14589;51.578;7.306;2023-06-24T00:16:19;4.00;;;2.08;;
27039;SDS011;14589;51.578;7.306;2023-06-24T00:18:56;4.35;;;2.22;;
27039;SDS011;14589;51.578;7.306;2023-06-24T00:21:28;4.35;;;2.03;;
27039;SDS011;14589;51.578;7.306;2023-06-24T00:24:00;8.27;;;2.38;;
27039;SDS011;14589;51.578;7.306;2023-06-24T00:26:34;4.65;;;2.55;;
27039;SDS011;14589;51.578;7.306;2023-06-24T00:29:04;7.78;;;2.85;;
27039;SDS011;14589;51.578;7.306;2023-06-24T00:31:35;3.60;;;1.73;;
27039;SDS011;14589;51.578;7.306;2023-06-24T00:34:05;5.35;;;2.00;;
27039;SDS011;14589;51.578;7.306;2023-06-24T00:36:35;4.95;;;2.08;;
27039;SDS011;14589;51.578;7.306;2023-06-24T00:39:06;3.40;;;1.67;;
27039;SDS011;14589;51.578;7.306;2023-06-24T00:41:37;5.05;;;2.50;;
27039;SDS011;14589;51.578;7.306;2023-06-24T00:44:08;4.10;;;1.67;;
27039;SDS011;14589;51.578;7.306;2023-06-24T00:46:39;4.15;;;1.98;;
27039;SDS011;14589;51.578;7.306;2023-06-24T00:49:10;5.28;;;2.17;;
27039;SDS011;14589;51.578;7.306;2023-06-24T00:51:44;4.50;;;2.55;;
27039;SDS011;14589;51.578;7.306;2023-06-24T00:54:17;4.15;;;2.33;;
27039;SDS011;14589;51.578;7.306;2023-06-24T00:56:47;4.25;;;1.95;;
27039;SDS011;14589;51.578;7.306;2023-06-24T00:59:18;5.03;;;2.33;;
27039;SDS011;14589;51.578;7.306;2023-06-24T01:01:49;4.68;;;1.77;;
27039;SDS011;14589;51.578;7.306;2023-06-24T01:04:23;3.85;;;1.83;;
27039;SDS011;14589;51.578;7.306;2023-06-24T01:06:55;6.05;;;2.92;;
27039;SDS011;14589;51.578;7.306;2023-06-24T01:09:26;6.68;;;3.03;;
27039;SDS011;14589;51.578;7.306;2023-06-24T01:11:57;4.10;;;2.35;;
27039;SDS011;14589;51.578;7.306;2023-06-24T01:14:28;4.35;;;2.08;;
27039;SDS011;14589;51.578;7.306;2023-06-24T01:17:03;3.50;;;2.00;;
27039;SDS011;14589;51.578;7.306;2023-06-24T01:31:30;6.47;;;2.67;;
27039;SDS011;14589;51.578;7.306;2023-06-24T01:39:49;5.18;;;2.30;;
27039;SDS011;14589;51.578;7.306;2023-06-24T01:42:22;7.88;;;3.25;;
27039;SDS011;14589;51.578;7.306;2023-06-24T01:44:53;4.00;;;1.92;;
27039;SDS011;14589;51.578;7.306;2023-06-24T01:47:25;5.10;;;1.65;;
27039;SDS011;14589;51.578;7.306;2023-06-24T01:50:00;4.25;;;1.90;;
27039;SDS011;14589;51.578;7.306;2023-06-24T01:52:32;5.47;;;2.45;;
27039;SDS011;14589;51.578;7.306;2023-06-24T01:55:05;5.70;;;2.53;;
27039;SDS011;14589;51.578;7.306;2023-06-24T01:57:38;4.35;;;2.30;;
27039;SDS011;14589;51.578;7.306;2023-06-24T02:00:11;4.35;;;2.17;;
27039;SDS011;14589;51.578;7.306;2023-06-24T02:02:55;4.07;;;1.80;;
27039;SDS011;14589;51.578;7.306;2023-06-24T02:05:26;4.20;;;2.92;;
27039;SDS011;14589;51.578;7.306;2023-06-24T02:07:58;5.53;;;3.08;;
27039;SDS011;14589;51.578;7.306;2023-06-24T02:13:00;4.95;;;1.85;;
27039;SDS011;14589;51.578;7.306;2023-06-24T02:15:32;5.18;;;2.50;;
27039;SDS011;14589;51.578;7.306;2023-06-24T02:18:04;4.97;;;2.70;;
27039;SDS011;14589;51.578;7.306;2023-06-24T02:20:37;3.88;;;1.80;;
27039;SDS011;14589;51.578;7.306;2023-06-24T02:23:10;3.92;;;2.72;;
27039;SDS011;14589;51.578;7.306;2023-06-24T02:25:41;7.05;;;2.15;;
27039;SDS011;14589;51.578;7.306;2023-06-24T02:28:12;5.07;;;2.33;;
27039;SDS011;14589;51.578;7.306;2023-06-24T02:33:15;3.42;;;1.98;;
27039;SDS011;14589;51.578;7.306;2023-06-24T02:35:47;5.10;;;1.92;;
27039;SDS011;14589;51.578;7.306;2023-06-24T02:38:18;6.28;;;2.38;;
27039;SDS011;14589;51.578;7.306;2023-06-24T02:40:51;4.78;;;2.35;;
27039;SDS011;14589;51.578;7.306;2023-06-24T02:43:22;5.57;;;2.47;;
27039;SDS011;14589;51.578;7.306;2023-06-24T02:45:53;4.60;;;2.60;;
27039;SDS011;14589;51.578;7.306;2023-06-24T02:48:23;5.15;;;2.30;;
27039;SDS011;14589;51.578;7.306;2023-06-24T02:50:55;5.13;;;3.10;;
27039;SDS011;14589;51.578;7.306;2023-06-24T02:53:25;6.28;;;3.45;;
27039;SDS011;14589;51.578;7.306;2023-06-24T02:55:57;4.10;;;2.00;;
27039;SDS011;14589;51.578;7.306;2023-06-24T02:58:29;4.38;;;2.40;;
27039;SDS011;14589;51.578;7.306;2023-06-24T03:01:10;6.40;;;2.65;;
27039;SDS011;14589;51.578;7.306;2023-06-24T03:03:53;5.72;;;2.53;;
27039;SDS011;14589;51.578;7.306;2023-06-24T03:06:24;5.88;;;2.92;;
27039;SDS011;14589;51.578;7.306;2023-06-24T03:09:00;5.30;;;2.35;;
27039;SDS011;14589;51.578;7.306;2023-06-24T03:11:40;6.03;;;2.47;;
27039;SDS011;14589;51.578;7.306;2023-06-24T03:14:12;4.30;;;2.00;;
27039;SDS011;14589;51.578;7.306;2023-06-24T03:16:45;4.68;;;2.72;;
27039;SDS011;14589;51.578;7.306;2023-06-24T03:19:20;4.75;;;2.53;;
27039;SDS011;14589;51.578;7.306;2023-06-24T03:21:51;4.93;;;2.63;;
27039;SDS011;14589;51.578;7.306;2023-06-24T03:24:22;4.22;;;2.00;;
27039;SDS011;14589;51.578;7.306;2023-06-24T03:29:29;4.85;;;2.42;;
27039;SDS011;14589;51.578;7.306;2023-06-24T03:32:18;6.25;;;2.50;;
27039;SDS011;14589;51.578;7.306;2023-06-24T03:34:50;6.07;;;2.38;;
27039;SDS011;14589;51.578;7.306;2023-06-24T03:37:21;4.60;;;2.53;;
27039;SDS011;14589;51.578;7.306;2023-06-24T03:39:52;5.55;;;2.53;;
27039;SDS011;14589;51.578;7.306;2023-06-24T03:42:24;4.18;;;2.20;;
27039;SDS011;14589;51.578;7.306;2023-06-24T03:44:54;4.72;;;2.33;;
27039;SDS011;14589;51.578;7.306;2023-06-24T03:47:25;4.75;;;2.50;;
27039;SDS011;14589;51.578;7.306;2023-06-24T03:49:56;4.70;;;2.33;;
27039;SDS011;14589;51.578;7.306;2023-06-24T03:52:26;5.22;;;2.03;;
27039;SDS011;14589;51.578;7.306;2023-06-24T03:54:57;5.70;;;3.45;;
27039;SDS011;14589;51.578;7.306;2023-06-24T03:57:27;5.13;;;3.15;;
27039;SDS011;14589;51.578;7.306;2023-06-24T03:59:57;4.78;;;2.35;;
27039;SDS011;14589;51.578;7.306;2023-06-24T04:02:28;6.35;;;2.97;;
27039;SDS011;14589;51.578;7.306;2023-06-24T04:04:59;5.38;;;2.90;;
27039;SDS011;14589;51.578;7.306;2023-06-24T04:07:30;3.90;;;2.40;;
27039;SDS011;14589;51.578;7.306;2023-06-24T04:10:02;6.82;;;3.72;;
27039;SDS011;14589;51.578;7.306;2023-06-24T04:12:34;5.70;;;2.75;;
27039;SDS011;14589;51.578;7.306;2023-06-24T04:15:05;5.00;;;2.53;;
27039;SDS011;14589;51.578;7.306;2023-06-24T04:22:39;4.72;;;2.38;;
27039;SDS011;14589;51.578;7.306;2023-06-24T04:25:11;6.55;;;2.97;;
27039;SDS011;14589;51.578;7.306;2023-06-24T04:27:42;6.60;;;2.90;;
27039;SDS011;14589;51.578;7.306;2023-06-24T04:30:12;5.75;;;2.53;;
27039;SDS011;14589;51.578;7.306;2023-06-24T04:32:43;5.70;;;3.08;;
27039;SDS011;14589;51.578;7.306;2023-06-24T04:35:14;5.15;;;2.92;;
27039;SDS011;14589;51.578;7.306;2023-06-24T04:37:45;5.45;;;2.97;;
27039;SDS011;14589;51.578;7.306;2023-06-24T04:40:17;6.03;;;2.78;;
27039;SDS011;14589;51.578;7.306;2023-06-24T04:42:47;6.63;;;3.38;;
27039;SDS011;14589;51.578;7.306;2023-06-24T04:45:17;7.38;;;3.15;;
27039;SDS011;14589;51.578;7.306;2023-06-24T04:47:48;5.97;;;2.78;;
27039;SDS011;14589;51.578;7.306;2023-06-24T04:50:19;7.43;;;3.25;;
27039;SDS011;14589;51.578;7.306;2023-06-24T04:52:53;7.25;;;2.70;;
27039;SDS011;14589;51.578;7.306;2023-06-24T04:55:27;4.65;;;3.22;;
27039;SDS011;14589;51.578;7.306;2023-06-24T04:57:59;6.40;;;2.83;;
27039;SDS011;14589;51.578;7.306;2023-06-24T05:00:30;4.68;;;2.67;;
27039;SDS011;14589;51.578;7.306;2023-06-24T05:03:00;6.18;;;2.95;;
27039;SDS011;14589;51.578;7.306;2023-06-24T05:05:31;4.72;;;2.72;;
27039;SDS011;14589;51.578;7.306;2023-06-24T05:08:01;4.13;;;2.03;;
27039;SDS011;14589;51.578;7.306;2023-06-24T05:10:31;6.55;;;3.13;;
27039;SDS011;14589;51.578;7.306;2023-06-24T05:13:02;5.78;;;3.20;;
27039;SDS011;14589;51.578;7.306;2023-06-24T05:15:32;5.22;;;3.15;;
27039;SDS011;14589;51.578;7.306;2023-06-24T05:18:02;5.18;;;3.42;;
27039;SDS011;14589;51.578;7.306;2023-06-24T05:20:33;5.40;;;3.30;;
27039;SDS011;14589;51.578;7.306;2023-06-24T05:23:03;7.32;;;3.92;;
27039;SDS011;14589;51.578;7.306;2023-06-24T05:25:34;5.40;;;2.78;;
27039;SDS011;14589;51.578;7.306;2023-06-24T05:28:05;6.03;;;3.05;;
27039;SDS011;14589;51.578;7.306;2023-06-24T05:30:35;6.50;;;3.63;;
27039;SDS011;14589;51.578;7.306;2023-06-24T05:33:06;4.95;;;3.10;;
27039;SDS011;14589;51.578;7.306;2023-06-24T05:35:36;4.63;;;2.63;;
27039;SDS011;14589;51.578;7.306;2023-06-24T05:38:10;6.20;;;3.47;;
27039;SDS011;14589;51.578;7.306;2023-06-24T05:40:40;5.50;;;2.80;;
27039;SDS011;14589;51.578;7.306;2023-06-24T05:43:10;7.00;;;3.20;;
27039;SDS011;14589;51.578;7.306;2023-06-24T05:45:41;5.13;;;2.58;;
27039;SDS011;14589;51.578;7.306;2023-06-24T05:48:11;4.85;;;2.17;;
27039;SDS011;14589;51.578;7.306;2023-06-24T05:50:42;3.80;;;1.98;;
27039;SDS011;14589;51.578;7.306;2023-06-24T05:53:12;6.25;;;2.45;;
27039;SDS011;14589;51.578;7.306;2023-06-24T05:55:42;4.40;;;2.53;;
27039;SDS011;14589;51.578;7.306;2023-06-24T05:58:13;3.90;;;2.30;;
27039;SDS011;14589;51.578;7.306;2023-06-24T06:00:43;3.65;;;1.73;;
27039;SDS011;14589;51.578;7.306;2023-06-24T06:03:14;5.57;;;1.60;;
27039;SDS011;14589;51.578;7.306;2023-06-24T06:05:44;2.72;;;1.83;;
27039;SDS011;14589;51.578;7.306;2023-06-24T06:08:14;6.20;;;1.55;;
27039;SDS011;14589;51.578;7.306;2023-06-24T06:10:45;2.78;;;1.42;;
27039;SDS011;14589;51.578;7.306;2023-06-24T06:13:15;4.20;;;1.13;;
27039;SDS011;14589;51.578;7.306;2023-06-24T06:15:45;2.78;;;0.93;;
27039;SDS011;14589;51.578;7.306;2023-06-24T06:18:16;2.55;;;1.30;;
27039;SDS011;14589;51.578;7.306;2023-06-24T06:20:46;2.95;;;1.23;;
27039;SDS011;14589;51.578;7.306;2023-06-24T06:23:16;4.18;;;1.98;;
27039;SDS011;14589;51.578;7.306;2023-06-24T06:25:47;2.88;;;1.20;;
27039;SDS011;14589;51.578;7.306;2023-06-24T06:28:17;3.05;;;1.40;;
27039;SDS011;14589;51.578;7.306;2023-06-24T06:30:48;4.03;;;1.42;;
27039;SDS011;14589;51.578;7.306;2023-06-24T06:33:18;3.60;;;1.40;;
27039;SDS011;14589;51.578;7.306;2023-06-24T06:35:48;3.35;;;1.88;;
27039;SDS011;14589;51.578;7.306;2023-06-24T06:38:19;2.78;;;1.05;;
27039;SDS011;14589;51.578;7.306;2023-06-24T06:40:49;3.13;;;1.80;;
27039;SDS011;14589;51.578;7.306;2023-06-24T06:43:20;3.05;;;0.93;;
27039;SDS011;14589;51.578;7.306;2023-06-24T06:45:51;3.42;;;0.98;;
27039;SDS011;14589;51.578;7.306;2023-06-24T06:48:22;3.35;;;1.17;;
27039;SDS011;14589;51.578;7.306;2023-06-24T06:50:52;3.67;;;1.05;;
27039;SDS011;14589;51.578;7.306;2023-06-24T06:53:23;3.40;;;1.73;;
27039;SDS011;14589;51.578;7.306;2023-06-24T06:55:53;3.85;;;2.08;;
27039;SDS011;14589;51.578;7.306;2023-06-24T06:58:24;2.92;;;1.38;;
27039;SDS011;14589;51.578;7.306;2023-06-24T07:00:54;3.03;;;1.60;;
27039;SDS011;14589;51.578;7.306;2023-06-24T07:03:25;3.50;;;1.65;;
27039;SDS011;14589;51.578;7.306;2023-06-24T07:05:55;5.18;;;2.22;;
27039;SDS011;14589;51.578;7.306;2023-06-24T07:08:25;6.05;;;2.40;;
27039;SDS011;14589;51.578;7.306;2023-06-24T07:10:56;3.35;;;1.70;;
27039;SDS011;14589;51.578;7.306;2023-06-24T07:13:26;3.97;;;1.92;;
27039;SDS011;14589;51.578;7.306;2023-06-24T07:15:57;3.70;;;1.95;;
27039;SDS011;14589;51.578;7.306;2023-06-24T07:18:27;2.92;;;1.52;;
27039;SDS011;14589;51.578;7.306;2023-06-24T07:21:00;2.70;;;1.42;;
27039;SDS011;14589;51.578;7.306;2023-06-24T07:23:31;3.80;;;1.55;;
27039;SDS011;14589;51.578;7.306;2023-06-24T07:26:02;7.63;;;2.85;;
27039;SDS011;14589;51.578;7.306;2023-06-24T07:28:32;5.13;;;2.17;;
27039;SDS011;14589;51.578;7.306;2023-06-24T07:31:03;5.32;;;2.28;;
27039;SDS011;14589;51.578;7.306;2023-06-24T07:33:33;5.22;;;2.92;;
27039;SDS011;14589;51.578;7.306;2023-06-24T07:36:04;4.10;;;1.80;;
27039;SDS011;14589;51.578;7.306;2023-06-24T07:38:35;4.22;;;1.70;;
27039;SDS011;14589;51.578;7.306;2023-06-24T07:41:05;3.45;;;2.03;;
27039;SDS011;14589;51.578;7.306;2023-06-24T07:43:36;4.63;;;2.83;;
27039;SDS011;14589;51.578;7.306;2023-06-24T07:46:06;6.85;;;3.38;;
27039;SDS011;14589;51.578;7.306;2023-06-24T07:48:37;4.85;;;2.05;;
27039;SDS011;14589;51.578;7.306;2023-06-24T07:51:07;6.53;;;2.67;;
27039;SDS011;14589;51.578;7.306;2023-06-24T07:53:38;4.35;;;2.05;;
27039;SDS011;14589;51.578;7.306;2023-06-24T07:56:09;4.18;;;2.53;;
27039;SDS011;14589;51.578;7.306;2023-06-24T07:58:39;3.83;;;2.42;;
27039;SDS011;14589;51.578;7.306;2023-06-24T08:01:10;4.88;;;3.03;;
27039;SDS011;14589;51.578;7.306;2023-06-24T08:03:40;7.22;;;3.45;;
27039;SDS011;14589;51.578;7.306;2023-06-24T08:06:10;4.65;;;2.50;;
27039;SDS011;14589;51.578;7.306;2023-06-24T08:08:41;5.95;;;3.35;;
27039;SDS011;14589;51.578;7.306;2023-06-24T08:11:11;7.10;;;3.17;;
27039;SDS011;14589;51.578;7.306;2023-06-24T08:13:41;5.50;;;3.03;;
27039;SDS011;14589;51.578;7.306;2023-06-24T08:16:12;6.80;;;3.25;;
27039;SDS011;14589;51.578;7.306;2023-06-24T08:18:42;4.22;;;2.75;;
27039;SDS011;14589;51.578;7.306;2023-06-24T08:21:12;5.97;;;3.33;;
27039;SDS011;14589;51.578;7.306;2023-06-24T08:23:43;6.90;;;3.83;;
27039;SDS011;14589;51.578;7.306;2023-06-24T08:26:14;5.43;;;4.00;;
27039;SDS011;14589;51.578;7.306;2023-06-24T08:28:46;5.10;;;2.53;;
27039;SDS011;14589;51.578;7.306;2023-06-24T08:31:17;5.85;;;4.78;;
27039;SDS011;14589;51.578;7.306;2023-06-24T08:33:47;5.78;;;2.60;;
27039;SDS011;14589;51.578;7.306;2023-06-24T08:36:23;8.20;;;5.40;;
27039;SDS011;14589;51.578;7.306;2023-06-24T08:38:56;5.82;;;3.15;;
27039;SDS011;14589;51.578;7.306;2023-06-24T08:41:26;7.15;;;4.15;;
27039;SDS011;14589;51.578;7.306;2023-06-24T08:43:57;7.55;;;2.95;;
27039;SDS011;14589;51.578;7.306;2023-06-24T08:46:28;6.32;;;3.80;;
27039;SDS011;14589;51.578;7.306;2023-06-24T08:49:06;8.10;;;4.90;;
27039;SDS011;14589;51.578;7.306;2023-06-24T08:52:08;9.27;;;3.90;;
27039;SDS011;14589;51.578;7.306;2023-06-24T08:54:41;6.13;;;3.60;;
27039;SDS011;14589;51.578;7.306;2023-06-24T08:57:14;7.90;;;5.22;;
27039;SDS011;14589;51.578;7.306;2023-06-24T08:59:45;9.20;;;5.70;;
27039;SDS011;14589;51.578;7.306;2023-06-24T09:02:16;9.15;;;4.78;;
27039;SDS011;14589;51.578;7.306;2023-06-24T09:04:46;7.03;;;3.63;;
27039;SDS011;14589;51.578;7.306;2023-06-24T09:07:25;10.18;;;4.18;;
27039;SDS011;14589;51.578;7.306;2023-06-24T09:09:57;8.85;;;5.72;;
27039;SDS011;14589;51.578;7.306;2023-06-24T09:12:28;7.90;;;3.88;;
27039;SDS011;14589;51.578;7.306;2023-06-24T09:15:02;6.53;;;3.72;;
27039;SDS011;14589;51.578;7.306;2023-06-24T09:17:33;8.20;;;5.25;;
27039;SDS011;14589;51.578;7.306;2023-06-24T09:20:13;4.90;;;3.00;;
27039;SDS011;14589;51.578;7.306;2023-06-24T09:22:44;7.90;;;3.70;;
27039;SDS011;14589;51.578;7.306;2023-06-24T09:25:18;7.68;;;4.18;;
27039;SDS011;14589;51.578;7.306;2023-06-24T09:27:49;11.27;;;5.70;;
27039;SDS011;14589;51.578;7.306;2023-06-24T09:30:22;7.93;;;4.60;;
27039;SDS011;14589;51.578;7.306;2023-06-24T09:32:53;4.38;;;2.40;;
27039;SDS011;14589;51.578;7.306;2023-06-24T09:35:25;5.80;;;3.72;;
27039;SDS011;14589;51.578;7.306;2023-06-24T09:37:56;9.85;;;5.35;;
27039;SDS011;14589;51.578;7.306;2023-06-24T09:40:29;7.70;;;4.40;;
27039;SDS011;14589;51.578;7.306;2023-06-24T09:43:05;6.50;;;2.92;;
27039;SDS011;14589;51.578;7.306;2023-06-24T09:45:35;4.50;;;2.85;;
27039;SDS011;14589;51.578;7.306;2023-06-24T09:48:06;4.78;;;3.20;;
27039;SDS011;14589;51.578;7.306;2023-06-24T09:50:36;7.90;;;2.92;;
27039;SDS011;14589;51.578;7.306;2023-06-24T09:53:06;5.00;;;3.03;;
27039;SDS011;14589;51.578;7.306;2023-06-24T09:55:37;8.68;;;3.63;;
27039;SDS011;14589;51.578;7.306;2023-06-24T09:58:13;5.32;;;3.33;;
27039;SDS011;14589;51.578;7.306;2023-06-24T10:00:46;6.25;;;2.92;;
27039;SDS011;14589;51.578;7.306;2023-06-24T10:05:49;5.53;;;3.13;;
27039;SDS011;14589;51.578;7.306;2023-06-24T10:08:20;5.35;;;2.95;;
27039;SDS011;14589;51.578;7.306;2023-06-24T10:10:50;4.43;;;2.22;;
27039;SDS011;14589;51.578;7.306;2023-06-24T10:13:21;5.00;;;3.38;;
27039;SDS011;14589;51.578;7.306;2023-06-24T10:15:52;5.88;;;1.88;;
27039;SDS011;14589;51.578;7.306;2023-06-24T10:18:35;5.85;;;3.28;;
27039;SDS011;14589;51.578;7.306;2023-06-24T10:21:07;3.10;;;1.55;;
27039;SDS011;14589;51.578;7.306;2023-06-24T10:26:22;7.15;;;2.55;;
27039;SDS011;14589;51.578;7.306;2023-06-24T10:29:16;6.18;;;2.40;;
27039;SDS011;14589;51.578;7.306;2023-06-24T10:37:20;4.05;;;1.65;;
27039;SDS011;14589;51.578;7.306;2023-06-24T10:47:42;4.27;;;2.00;;
27039;SDS011;14589;51.578;7.306;2023-06-24T10:50:15;4.45;;;1.83;;
27039;SDS011;14589;51.578;7.306;2023-06-24T10:52:49;5.25;;;1.80;;
27039;SDS011;14589;51.578;7.306;2023-06-24T10:55:25;3.97;;;2.42;;
27039;SDS011;14589;51.578;7.306;2023-06-24T10:58:06;2.95;;;1.25;;
27039;SDS011;14589;51.578;7.306;2023-06-24T11:00:38;2.88;;;1.30;;
27039;SDS011;14589;51.578;7.306;2023-06-24T11:03:12;4.78;;;1.40;;
27039;SDS011;14589;51.578;7.306;2023-06-24T11:05:44;5.68;;;1.15;;
27039;SDS011;14589;51.578;7.306;2023-06-24T11:08:15;3.45;;;1.02;;
27039;SDS011;14589;51.578;7.306;2023-06-24T11:10:47;3.03;;;1.45;;
27039;SDS011;14589;51.578;7.306;2023-06-24T11:13:20;3.28;;;0.70;;
27039;SDS011;14589;51.578;7.306;2023-06-24T11:15:50;2.58;;;1.80;;
27039;SDS011;14589;51.578;7.306;2023-06-24T11:18:21;2.35;;;1.38;;
27039;SDS011;14589;51.578;7.306;2023-06-24T11:20:53;3.00;;;1.23;;
27039;SDS011;14589;51.578;7.306;2023-06-24T11:23:23;2.40;;;0.93;;
27039;SDS011;14589;51.578;7.306;2023-06-24T11:25:54;2.22;;;1.52;;
27039;SDS011;14589;51.578;7.306;2023-06-24T11:28:26;2.53;;;1.05;;
27039;SDS011;14589;51.578;7.306;2023-06-24T11:33:36;3.70;;;1.50;;
27039;SDS011;14589;51.578;7.306;2023-06-24T11:36:09;2.45;;;1.30;;
27039;SDS011;14589;51.578;7.306;2023-06-24T11:38:40;5.80;;;1.80;;
27039;SDS011;14589;51.578;7.306;2023-06-24T11:41:10;3.08;;;1.63;;
27039;SDS011;14589;51.578;7.306;2023-06-24T11:43:44;4.50;;;1.45;;
27039;SDS011;14589;51.578;7.306;2023-06-24T11:46:24;3.45;;;2.13;;
27039;SDS011;14589;51.578;7.306;2023-06-24T11:49:04;3.97;;;1.75;;
27039;SDS011;14589;51.578;7.306;2023-06-24T11:51:35;3.10;;;1.85;;
27039;SDS011;14589;51.578;7.306;2023-06-24T11:54:06;2.83;;;1.60;;
27039;SDS011;14589;51.578;7.306;2023-06-24T11:56:40;3.22;;;1.98;;
27039;SDS011;14589;51.578;7.306;2023-06-24T11:59:18;2.65;;;1.30;;
27039;SDS011;14589;51.578;7.306;2023-06-24T12:01:58;3.55;;;2.17;;
27039;SDS011;14589;51.578;7.306;2023-06-24T12:04:30;5.13;;;1.38;;
27039;SDS011;14589;51.578;7.306;2023-06-24T12:07:01;4.10;;;2.30;;
27039;SDS011;14589;51.578;7.306;2023-06-24T12:09:31;2.97;;;1.58;;
27039;SDS011;14589;51.578;7.306;2023-06-24T12:12:02;4.00;;;2.00;;
27039;SDS011;14589;51.578;7.306;2023-06-24T12:14:32;3.25;;;0.98;;
27039;SDS011;14589;51.578;7.306;2023-06-24T12:17:03;3.70;;;1.65;;
27039;SDS011;14589;51.578;7.306;2023-06-24T12:19:33;3.05;;;1.90;;
27039;SDS011;14589;51.578;7.306;2023-06-24T12:22:03;3.08;;;1.05;;
27039;SDS011;14589;51.578;7.306;2023-06-24T12:24:34;3.30;;;1.60;;
27039;SDS011;14589;51.578;7.306;2023-06-24T12:27:04;3.58;;;1.58;;
27039;SDS011;14589;51.578;7.306;2023-06-24T12:29:35;2.47;;;1.67;;
27039;SDS011;14589;51.578;7.306;2023-06-24T12:32:05;3.33;;;1.63;;
27039;SDS011;14589;51.578;7.306;2023-06-24T12:34:36;2.80;;;1.33;;
27039;SDS011;14589;51.578;7.306;2023-06-24T12:37:07;3.30;;;1.38;;
27039;SDS011;14589;51.578;7.306;2023-06-24T12:39:37;2.45;;;1.67;;
27039;SDS011;14589;51.578;7.306;2023-06-24T12:42:07;3.00;;;1.63;;
27039;SDS011;14589;51.578;7.306;2023-06-24T12:44:38;2.90;;;1.58;;
27039;SDS011;14589;51.578;7.306;2023-06-24T12:47:08;3.67;;;1.70;;
27039;SDS011;14589;51.578;7.306;2023-06-24T12:49:39;4.03;;;1.65;;
27039;SDS011;14589;51.578;7.306;2023-06-24T12:52:09;4.82;;;2.30;;
27039;SDS011;14589;51.578;7.306;2023-06-24T12:54:40;2.47;;;1.70;;
27039;SDS011;14589;51.578;7.306;2023-06-24T12:57:11;3.03;;;1.52;;
27039;SDS011;14589;51.578;7.306;2023-06-24T12:59:41;3.53;;;1.83;;
27039;SDS011;14589;51.578;7.306;2023-06-24T13:02:12;3.03;;;1.80;;
27039;SDS011;14589;51.578;7.306;2023-06-24T13:04:42;6.10;;;2.00;;
27039;SDS011;14589;51.578;7.306;2023-06-24T13:07:13;3.28;;;2.28;;
27039;SDS011;14589;51.578;7.306;2023-06-24T13:09:43;2.85;;;1.60;;
27039;SDS011;14589;51.578;7.306;2023-06-24T13:12:13;3.33;;;2.25;;
27039;SDS011;14589;51.578;7.306;2023-06-24T13:14:44;3.17;;;1.48;;
27039;SDS011;14589;51.578;7.306;2023-06-24T13:17:14;3.90;;;1.65;;
27039;SDS011;14589;51.578;7.306;2023-06-24T13:19:45;5.65;;;3.38;;
27039;SDS011;14589;51.578;7.306;2023-06-24T13:22:15;3.78;;;2.10;;
27039;SDS011;14589;51.578;7.306;2023-06-24T13:24:46;3.53;;;2.08;;
27039;SDS011;14589;51.578;7.306;2023-06-24T13:27:16;6.07;;;1.30;;
27039;SDS011;14589;51.578;7.306;2023-06-24T13:29:47;3.03;;;1.85;;
27039;SDS011;14589;51.578;7.306;2023-06-24T13:32:17;3.65;;;2.22;;
27039;SDS011;14589;51.578;7.306;2023-06-24T13:34:47;4.90;;;2.65;;
27039;SDS011;14589;51.578;7.306;2023-06-24T13:37:18;3.20;;;1.98;;
27039;SDS011;14589;51.578;7.306;2023-06-24T13:39:48;3.25;;;1.45;;
27039;SDS011;14589;51.578;7.306;2023-06-24T13:42:19;3.45;;;1.98;;
27039;SDS011;14589;51.578;7.306;2023-06-24T13:44:49;3.20;;;1.75;;
27039;SDS011;14589;51.578;7.306;2023-06-24T13:47:19;1.88;;;1.08;;
27039;SDS011;14589;51.578;7.306;2023-06-24T13:49:50;3.38;;;3.08;;
27039;SDS011;14589;51.578;7.306;2023-06-24T13:52:20;3.85;;;2.45;;
27039;SDS011;14589;51.578;7.306;2023-06-24T13:54:51;6.35;;;2.05;;
27039;SDS011;14589;51.578;7.306;2023-06-24T13:57:21;2.65;;;1.65;;
27039;SDS011;14589;51.578;7.306;2023-06-24T13:59:52;4.45;;;1.77;;
27039;SDS011;14589;51.578;7.306;2023-06-24T14:02:22;2.95;;;1.85;;
27039;SDS011;14589;51.578;7.306;2023-06-24T14:04:52;4.28;;;2.67;;
27039;SDS011;14589;51.578;7.306;2023-06-24T14:07:23;2.72;;;1.50;;
27039;SDS011;14589;51.578;7.306;2023-06-24T14:09:55;4.70;;;1.65;;
27039;SDS011;14589;51.578;7.306;2023-06-24T14:12:25;3.78;;;1.75;;
27039;SDS011;14589;51.578;7.306;2023-06-24T14:14:56;2.38;;;1.40;;
27039;SDS011;14589;51.578;7.306;2023-06-24T14:17:26;3.13;;;2.00;;
27039;SDS011;14589;51.578;7.306;2023-06-24T14:19:57;4.53;;;2.60;;
27039;SDS011;14589;51.578;7.306;2023-06-24T14:22:27;4.88;;;2.92;;
27039;SDS011;14589;51.578;7.306;2023-06-24T14:24:57;3.33;;;1.88;;
27039;SDS011;14589;51.578;7.306;2023-06-24T14:27:28;4.07;;;1.77;;
27039;SDS011;14589;51.578;7.306;2023-06-24T14:29:58;4.60;;;2.60;;
27039;SDS011;14589;51.578;7.306;2023-06-24T14:32:28;3.20;;;1.98;;
27039;SDS011;14589;51.578;7.306;2023-06-24T14:34:59;3.53;;;2.08;;
27039;SDS011;14589;51.578;7.306;2023-06-24T14:37:29;4.40;;;1.80;;
27039;SDS011;14589;51.578;7.306;2023-06-24T14:39:59;2.70;;;1.85;;
27039;SDS011;14589;51.578;7.306;2023-06-24T14:42:30;2.33;;;1.50;;
27039;SDS011;14589;51.578;7.306;2023-06-24T14:45:00;4.32;;;1.48;;
27039;SDS011;14589;51.578;7.306;2023-06-24T14:47:31;3.75;;;1.52;;
27039;SDS011;14589;51.578;7.306;2023-06-24T14:52:32;3.45;;;2.08;;
27039;SDS011;14589;51.578;7.306;2023-06-24T14:55:03;3.88;;;2.20;;
27039;SDS011;14589;51.578;7.306;2023-06-24T14:57:34;5.10;;;2.08;;
27039;SDS011;14589;51.578;7.306;2023-06-24T15:00:06;3.58;;;2.13;;
27039;SDS011;14589;51.578;7.306;2023-06-24T15:02:37;2.25;;;1.42;;
27039;SDS011;14589;51.578;7.306;2023-06-24T15:05:07;2.65;;;1.58;;
27039;SDS011;14589;51.578;7.306;2023-06-24T15:07:38;3.03;;;2.25;;
27039;SDS011;14589;51.578;7.306;2023-06-24T15:10:08;6.13;;;2.95;;
27039;SDS011;14589;51.578;7.306;2023-06-24T15:12:39;4.03;;;2.38;;
27039;SDS011;14589;51.578;7.306;2023-06-24T15:15:10;2.78;;;1.75;;
27039;SDS011;14589;51.578;7.306;2023-06-24T15:17:40;3.92;;;2.35;;
27039;SDS011;14589;51.578;7.306;2023-06-24T15:20:14;3.25;;;2.95;;
27039;SDS011;14589;51.578;7.306;2023-06-24T15:22:45;2.50;;;1.35;;
27039;SDS011;14589;51.578;7.306;2023-06-24T15:25:15;3.35;;;1.55;;
27039;SDS011;14589;51.578;7.306;2023-06-24T15:27:46;3.10;;;1.17;;
27039;SDS011;14589;51.578;7.306;2023-06-24T15:30:16;3.47;;;1.45;;
27039;SDS011;14589;51.578;7.306;2023-06-24T15:32:46;3.63;;;1.77;;
27039;SDS011;14589;51.578;7.306;2023-06-24T15:35:17;3.30;;;1.13;;
27039;SDS011;14589;51.578;7.306;2023-06-24T15:37:47;3.63;;;1.23;;
27039;SDS011;14589;51.578;7.306;2023-06-24T15:40:17;3.05;;;1.48;;
27039;SDS011;14589;51.578;7.306;2023-06-24T15:42:48;2.63;;;1.13;;
27039;SDS011;14589;51.578;7.306;2023-06-24T15:45:18;2.92;;;1.65;;
27039;SDS011;14589;51.578;7.306;2023-06-24T15:47:51;2.50;;;1.15;;
27039;SDS011;14589;51.578;7.306;2023-06-24T15:50:21;2.28;;;0.85;;
27039;SDS011;14589;51.578;7.306;2023-06-24T15:52:51;2.97;;;1.05;;
27039;SDS011;14589;51.578;7.306;2023-06-24T15:55:22;3.58;;;1.70;;
27039;SDS011;14589;51.578;7.306;2023-06-24T15:57:52;2.67;;;1.42;;
27039;SDS011;14589;51.578;7.306;2023-06-24T16:00:22;3.15;;;1.27;;
27039;SDS011;14589;51.578;7.306;2023-06-24T16:02:53;3.97;;;2.03;;
27039;SDS011;14589;51.578;7.306;2023-06-24T16:05:23;4.45;;;1.63;;
27039;SDS011;14589;51.578;7.306;2023-06-24T16:07:53;3.67;;;1.23;;